sensor_id;sensor_type;location;lat;lon;timestamp;P1;durP1;ratioP1;P2;durP2;ratioP2
29940;SDS011;16801;53.562;10.038;2023-04-24T00:01:33;2.47;;;2.27;;
29940;SDS011;16801;53.562;10.038;2023-04-24T00:04:56;2.83;;;2.60;;
29940;SDS011;16801;53.562;10.038;2023-04-24T00:08:21;3.20;;;2.90;;
29940;SDS011;16801;53.562;10.038;2023-04-24T00:11:44;3.20;;;3.00;;
29940;SDS011;16801;53.562;10.038;2023-04-24T00:15:05;2.20;;;2.10;;
29940;SDS011;16801;53.562;10.038;2023-04-24T00:18:27;2.60;;;2.40;;
29940;SDS011;16801;53.562;10.038;2023-04-24T00:21:48;3.20;;;3.00;;
29940;SDS011;16801;53.562;10.038;2023-04-24T00:25:10;2.50;;;2.30;;
29940;SDS011;16801;53.562;10.038;2023-04-24T00:28:32;4.13;;;2.03;;
29940;SDS011;16801;53.562;10.038;2023-04-24T00:31:53;4.37;;;2.93;;
29940;SDS011;16801;53.562;10.038;2023-04-24T00:35:14;3.43;;;2.30;;
29940;SDS011;16801;53.562;10.038;2023-04-24T00:38:35;2.73;;;2.50;;
29940;SDS011;16801;53.562;10.038;2023-04-24T00:41:57;3.00;;;2.73;;
29940;SDS011;16801;53.562;10.038;2023-04-24T00:45:19;3.30;;;2.37;;
29940;SDS011;16801;53.562;10.038;2023-04-24T00:48:41;2.03;;;1.93;;
29940;SDS011;16801;53.562;10.038;2023-04-24T00:52:02;2.87;;;2.60;;
29940;SDS011;16801;53.562;10.038;2023-04-24T00:55:26;2.60;;;2.40;;
29940;SDS011;16801;53.562;10.038;2023-04-24T00:58:47;3.20;;;2.90;;
29940;SDS011;16801;53.562;10.038;2023-04-24T01:02:10;3.30;;;3.07;;
29940;SDS011;16801;53.562;10.038;2023-04-24T01:05:33;2.30;;;2.20;;
29940;SDS011;16801;53.562;10.038;2023-04-24T01:08:54;4.03;;;2.30;;
29940;SDS011;16801;53.562;10.038;2023-04-24T01:12:15;3.10;;;2.90;;
29940;SDS011;16801;53.562;10.038;2023-04-24T01:15:38;2.40;;;2.20;;
29940;SDS011;16801;53.562;10.038;2023-04-24T01:19:02;2.67;;;2.47;;
29940;SDS011;16801;53.562;10.038;2023-04-24T01:22:24;3.53;;;2.40;;
29940;SDS011;16801;53.562;10.038;2023-04-24T01:25:45;3.10;;;2.90;;
29940;SDS011;16801;53.562;10.038;2023-04-24T01:29:07;2.30;;;2.20;;
29940;SDS011;16801;53.562;10.038;2023-04-24T01:32:29;1.97;;;1.87;;
29940;SDS011;16801;53.562;10.038;2023-04-24T01:35:50;3.07;;;2.87;;
29940;SDS011;16801;53.562;10.038;2023-04-24T01:39:13;2.47;;;2.27;;
29940;SDS011;16801;53.562;10.038;2023-04-24T01:42:35;1.57;;;1.47;;
29940;SDS011;16801;53.562;10.038;2023-04-24T01:45:57;4.13;;;3.13;;
29940;SDS011;16801;53.562;10.038;2023-04-24T01:49:17;3.17;;;2.20;;
29940;SDS011;16801;53.562;10.038;2023-04-24T01:52:38;2.33;;;1.77;;
29940;SDS011;16801;53.562;10.038;2023-04-24T01:56:00;2.43;;;2.23;;
29940;SDS011;16801;53.562;10.038;2023-04-24T01:59:23;1.77;;;1.50;;
29940;SDS011;16801;53.562;10.038;2023-04-24T02:02:45;2.90;;;1.87;;
29940;SDS011;16801;53.562;10.038;2023-04-24T02:06:07;1.60;;;1.50;;
29940;SDS011;16801;53.562;10.038;2023-04-24T02:09:28;2.40;;;2.20;;
29940;SDS011;16801;53.562;10.038;2023-04-24T02:12:50;7.07;;;2.10;;
29940;SDS011;16801;53.562;10.038;2023-04-24T02:16:11;2.87;;;1.53;;
29940;SDS011;16801;53.562;10.038;2023-04-24T02:19:31;2.33;;;2.13;;
29940;SDS011;16801;53.562;10.038;2023-04-24T02:22:52;2.27;;;2.07;;
29940;SDS011;16801;53.562;10.038;2023-04-24T02:26:13;1.80;;;1.70;;
29940;SDS011;16801;53.562;10.038;2023-04-24T02:29:36;2.00;;;1.90;;
29940;SDS011;16801;53.562;10.038;2023-04-24T02:32:56;2.33;;;2.13;;
29940;SDS011;16801;53.562;10.038;2023-04-24T02:36:17;4.83;;;2.13;;
29940;SDS011;16801;53.562;10.038;2023-04-24T02:39:38;1.93;;;1.83;;
29940;SDS011;16801;53.562;10.038;2023-04-24T02:42:59;1.63;;;1.53;;
29940;SDS011;16801;53.562;10.038;2023-04-24T02:46:21;2.27;;;1.60;;
29940;SDS011;16801;53.562;10.038;2023-04-24T02:49:42;3.00;;;2.20;;
29940;SDS011;16801;53.562;10.038;2023-04-24T02:53:02;1.50;;;1.40;;
29940;SDS011;16801;53.562;10.038;2023-04-24T02:56:23;1.43;;;1.33;;
29940;SDS011;16801;53.562;10.038;2023-04-24T02:59:45;1.30;;;1.20;;
29940;SDS011;16801;53.562;10.038;2023-04-24T03:03:07;1.77;;;1.60;;
29940;SDS011;16801;53.562;10.038;2023-04-24T03:06:28;1.53;;;1.43;;
29940;SDS011;16801;53.562;10.038;2023-04-24T03:09:50;1.67;;;1.27;;
29940;SDS011;16801;53.562;10.038;2023-04-24T03:13:11;1.43;;;1.33;;
29940;SDS011;16801;53.562;10.038;2023-04-24T03:16:32;1.20;;;1.10;;
29940;SDS011;16801;53.562;10.038;2023-04-24T03:19:54;1.53;;;1.43;;
29940;SDS011;16801;53.562;10.038;2023-04-24T03:23:16;2.27;;;1.10;;
29940;SDS011;16801;53.562;10.038;2023-04-24T03:26:38;1.10;;;0.97;;
29940;SDS011;16801;53.562;10.038;2023-04-24T03:30:34;3.83;;;1.77;;
29940;SDS011;16801;53.562;10.038;2023-04-24T03:33:56;1.20;;;1.10;;
29940;SDS011;16801;53.562;10.038;2023-04-24T03:37:18;2.83;;;1.33;;
29940;SDS011;16801;53.562;10.038;2023-04-24T03:40:49;1.63;;;1.53;;
29940;SDS011;16801;53.562;10.038;2023-04-24T03:44:24;1.40;;;1.30;;
29940;SDS011;16801;53.562;10.038;2023-04-24T03:47:46;2.23;;;1.33;;
29940;SDS011;16801;53.562;10.038;2023-04-24T03:51:06;0.70;;;0.70;;
29940;SDS011;16801;53.562;10.038;2023-04-24T03:54:31;0.80;;;0.80;;
29940;SDS011;16801;53.562;10.038;2023-04-24T03:57:53;2.60;;;2.20;;
29940;SDS011;16801;53.562;10.038;2023-04-24T04:01:15;0.97;;;0.97;;
29940;SDS011;16801;53.562;10.038;2023-04-24T04:04:43;1.33;;;1.17;;
29940;SDS011;16801;53.562;10.038;2023-04-24T04:08:04;1.33;;;1.23;;
29940;SDS011;16801;53.562;10.038;2023-04-24T04:11:26;1.50;;;1.10;;
29940;SDS011;16801;53.562;10.038;2023-04-24T04:14:47;1.57;;;0.93;;
29940;SDS011;16801;53.562;10.038;2023-04-24T04:18:07;1.20;;;1.20;;
29940;SDS011;16801;53.562;10.038;2023-04-24T04:21:29;0.70;;;0.70;;
29940;SDS011;16801;53.562;10.038;2023-04-24T04:25:00;0.57;;;0.57;;
29940;SDS011;16801;53.562;10.038;2023-04-24T04:28:25;1.70;;;1.60;;
29940;SDS011;16801;53.562;10.038;2023-04-24T04:31:46;1.30;;;0.70;;
29940;SDS011;16801;53.562;10.038;2023-04-24T04:35:08;1.10;;;1.00;;
29940;SDS011;16801;53.562;10.038;2023-04-24T04:38:29;1.40;;;1.00;;
29940;SDS011;16801;53.562;10.038;2023-04-24T04:42:03;1.47;;;0.87;;
29940;SDS011;16801;53.562;10.038;2023-04-24T04:45:33;0.80;;;0.80;;
29940;SDS011;16801;53.562;10.038;2023-04-24T04:49:17;1.80;;;0.80;;
29940;SDS011;16801;53.562;10.038;2023-04-24T04:52:38;1.93;;;1.17;;
29940;SDS011;16801;53.562;10.038;2023-04-24T04:56:10;0.80;;;0.80;;
29940;SDS011;16801;53.562;10.038;2023-04-24T04:59:38;0.60;;;0.60;;
29940;SDS011;16801;53.562;10.038;2023-04-24T05:03:06;1.57;;;0.87;;
29940;SDS011;16801;53.562;10.038;2023-04-24T05:06:26;1.37;;;1.27;;
29940;SDS011;16801;53.562;10.038;2023-04-24T05:09:48;1.20;;;1.10;;
29940;SDS011;16801;53.562;10.038;2023-04-24T05:13:10;2.20;;;1.00;;
29940;SDS011;16801;53.562;10.038;2023-04-24T05:16:32;0.97;;;0.93;;
29940;SDS011;16801;53.562;10.038;2023-04-24T05:19:54;1.73;;;1.37;;
29940;SDS011;16801;53.562;10.038;2023-04-24T05:23:15;1.10;;;1.00;;
29940;SDS011;16801;53.562;10.038;2023-04-24T05:26:39;1.00;;;1.00;;
29940;SDS011;16801;53.562;10.038;2023-04-24T05:30:01;1.93;;;1.10;;
29940;SDS011;16801;53.562;10.038;2023-04-24T05:33:24;2.67;;;1.13;;
29940;SDS011;16801;53.562;10.038;2023-04-24T05:36:46;1.47;;;1.30;;
29940;SDS011;16801;53.562;10.038;2023-04-24T05:40:07;2.43;;;1.77;;
29940;SDS011;16801;53.562;10.038;2023-04-24T05:43:29;0.80;;;0.70;;
29940;SDS011;16801;53.562;10.038;2023-04-24T05:46:50;1.13;;;1.13;;
29940;SDS011;16801;53.562;10.038;2023-04-24T05:50:11;2.20;;;1.30;;
29940;SDS011;16801;53.562;10.038;2023-04-24T05:53:34;1.10;;;1.10;;
29940;SDS011;16801;53.562;10.038;2023-04-24T05:56:55;1.60;;;1.50;;
29940;SDS011;16801;53.562;10.038;2023-04-24T06:00:27;3.67;;;1.47;;
29940;SDS011;16801;53.562;10.038;2023-04-24T06:03:55;1.10;;;0.90;;
29940;SDS011;16801;53.562;10.038;2023-04-24T06:07:18;1.27;;;1.17;;
29940;SDS011;16801;53.562;10.038;2023-04-24T06:10:41;0.80;;;0.80;;
29940;SDS011;16801;53.562;10.038;2023-04-24T06:14:03;1.00;;;0.90;;
29940;SDS011;16801;53.562;10.038;2023-04-24T06:17:30;1.13;;;1.03;;
29940;SDS011;16801;53.562;10.038;2023-04-24T06:20:52;0.90;;;0.90;;
29940;SDS011;16801;53.562;10.038;2023-04-24T06:24:14;3.30;;;1.13;;
29940;SDS011;16801;53.562;10.038;2023-04-24T06:27:37;1.17;;;1.17;;
29940;SDS011;16801;53.562;10.038;2023-04-24T06:30:58;0.83;;;0.83;;
29940;SDS011;16801;53.562;10.038;2023-04-24T06:34:19;2.50;;;0.70;;
29940;SDS011;16801;53.562;10.038;2023-04-24T06:37:40;1.20;;;1.20;;
29940;SDS011;16801;53.562;10.038;2023-04-24T06:41:02;1.17;;;1.07;;
29940;SDS011;16801;53.562;10.038;2023-04-24T06:44:25;0.90;;;0.90;;
29940;SDS011;16801;53.562;10.038;2023-04-24T06:47:46;0.90;;;0.87;;
29940;SDS011;16801;53.562;10.038;2023-04-24T06:51:08;1.53;;;1.53;;
29940;SDS011;16801;53.562;10.038;2023-04-24T06:54:29;2.37;;;1.00;;
29940;SDS011;16801;53.562;10.038;2023-04-24T06:57:50;1.47;;;1.40;;
29940;SDS011;16801;53.562;10.038;2023-04-24T07:01:12;3.10;;;1.83;;
29940;SDS011;16801;53.562;10.038;2023-04-24T07:04:33;1.93;;;1.10;;
29940;SDS011;16801;53.562;10.038;2023-04-24T07:07:54;1.93;;;1.83;;
29940;SDS011;16801;53.562;10.038;2023-04-24T07:11:17;2.17;;;1.30;;
29940;SDS011;16801;53.562;10.038;2023-04-24T07:14:39;2.03;;;1.77;;
29940;SDS011;16801;53.562;10.038;2023-04-24T07:18:01;2.50;;;1.70;;
29940;SDS011;16801;53.562;10.038;2023-04-24T07:21:22;1.17;;;1.17;;
29940;SDS011;16801;53.562;10.038;2023-04-24T07:24:43;1.40;;;1.30;;
29940;SDS011;16801;53.562;10.038;2023-04-24T07:28:04;1.20;;;1.10;;
29940;SDS011;16801;53.562;10.038;2023-04-24T07:31:25;2.57;;;1.87;;
29940;SDS011;16801;53.562;10.038;2023-04-24T07:34:48;1.23;;;1.10;;
29940;SDS011;16801;53.562;10.038;2023-04-24T07:38:09;1.57;;;1.47;;
29940;SDS011;16801;53.562;10.038;2023-04-24T07:41:30;1.43;;;1.33;;
29940;SDS011;16801;53.562;10.038;2023-04-24T07:44:51;1.77;;;1.67;;
29940;SDS011;16801;53.562;10.038;2023-04-24T07:48:12;2.07;;;1.43;;
29940;SDS011;16801;53.562;10.038;2023-04-24T07:51:35;3.27;;;1.80;;
29940;SDS011;16801;53.562;10.038;2023-04-24T07:54:57;2.10;;;2.00;;
29940;SDS011;16801;53.562;10.038;2023-04-24T07:58:19;1.80;;;1.70;;
29940;SDS011;16801;53.562;10.038;2023-04-24T08:01:40;2.83;;;2.43;;
29940;SDS011;16801;53.562;10.038;2023-04-24T08:05:01;1.63;;;1.53;;
29940;SDS011;16801;53.562;10.038;2023-04-24T08:08:24;2.57;;;1.53;;
29940;SDS011;16801;53.562;10.038;2023-04-24T08:11:45;2.27;;;2.17;;
29940;SDS011;16801;53.562;10.038;2023-04-24T08:15:07;2.13;;;2.03;;
29940;SDS011;16801;53.562;10.038;2023-04-24T08:18:28;3.00;;;2.80;;
29940;SDS011;16801;53.562;10.038;2023-04-24T08:21:49;1.87;;;1.77;;
29940;SDS011;16801;53.562;10.038;2023-04-24T08:25:11;2.43;;;2.23;;
29940;SDS011;16801;53.562;10.038;2023-04-24T08:28:32;2.60;;;2.33;;
29940;SDS011;16801;53.562;10.038;2023-04-24T08:31:53;3.00;;;2.33;;
29940;SDS011;16801;53.562;10.038;2023-04-24T08:35:15;2.43;;;2.00;;
29940;SDS011;16801;53.562;10.038;2023-04-24T08:38:36;3.50;;;2.70;;
29940;SDS011;16801;53.562;10.038;2023-04-24T08:41:58;2.90;;;2.70;;
29940;SDS011;16801;53.562;10.038;2023-04-24T08:45:24;3.70;;;3.43;;
29940;SDS011;16801;53.562;10.038;2023-04-24T08:48:45;2.50;;;2.30;;
29940;SDS011;16801;53.562;10.038;2023-04-24T08:52:07;3.17;;;2.87;;
29940;SDS011;16801;53.562;10.038;2023-04-24T08:55:28;2.90;;;2.70;;
29940;SDS011;16801;53.562;10.038;2023-04-24T08:58:53;4.17;;;3.60;;
29940;SDS011;16801;53.562;10.038;2023-04-24T09:02:14;1.60;;;1.43;;
29940;SDS011;16801;53.562;10.038;2023-04-24T09:05:37;2.00;;;1.90;;
29940;SDS011;16801;53.562;10.038;2023-04-24T09:09:00;2.10;;;1.93;;
29940;SDS011;16801;53.562;10.038;2023-04-24T09:12:22;2.47;;;2.27;;
29940;SDS011;16801;53.562;10.038;2023-04-24T09:15:44;2.47;;;2.03;;
29940;SDS011;16801;53.562;10.038;2023-04-24T09:19:06;2.37;;;2.20;;
29940;SDS011;16801;53.562;10.038;2023-04-24T09:22:28;3.10;;;2.87;;
29940;SDS011;16801;53.562;10.038;2023-04-24T09:25:50;2.80;;;2.60;;
29940;SDS011;16801;53.562;10.038;2023-04-24T09:29:15;3.83;;;1.93;;
29940;SDS011;16801;53.562;10.038;2023-04-24T09:32:38;2.67;;;1.90;;
29940;SDS011;16801;53.562;10.038;2023-04-24T09:36:00;3.30;;;3.00;;
29940;SDS011;16801;53.562;10.038;2023-04-24T09:39:21;4.50;;;3.13;;
29940;SDS011;16801;53.562;10.038;2023-04-24T09:42:46;3.23;;;2.93;;
29940;SDS011;16801;53.562;10.038;2023-04-24T09:46:11;3.73;;;3.30;;
29940;SDS011;16801;53.562;10.038;2023-04-24T09:49:34;3.70;;;3.40;;
29940;SDS011;16801;53.562;10.038;2023-04-24T09:52:56;2.80;;;2.60;;
29940;SDS011;16801;53.562;10.038;2023-04-24T09:56:19;4.00;;;2.60;;
29940;SDS011;16801;53.562;10.038;2023-04-24T09:59:42;2.73;;;2.53;;
29940;SDS011;16801;53.562;10.038;2023-04-24T10:03:04;3.80;;;3.50;;
29940;SDS011;16801;53.562;10.038;2023-04-24T10:06:31;2.73;;;2.53;;
29940;SDS011;16801;53.562;10.038;2023-04-24T10:09:54;3.33;;;2.80;;
29940;SDS011;16801;53.562;10.038;2023-04-24T10:13:14;5.50;;;3.03;;
29940;SDS011;16801;53.562;10.038;2023-04-24T10:16:36;5.60;;;3.50;;
29940;SDS011;16801;53.562;10.038;2023-04-24T10:19:57;3.77;;;3.37;;
29940;SDS011;16801;53.562;10.038;2023-04-24T10:23:22;4.50;;;4.10;;
29940;SDS011;16801;53.562;10.038;2023-04-24T10:26:45;3.80;;;3.13;;
29940;SDS011;16801;53.562;10.038;2023-04-24T10:30:07;8.67;;;3.97;;
29940;SDS011;16801;53.562;10.038;2023-04-24T10:33:31;5.77;;;4.30;;
29940;SDS011;16801;53.562;10.038;2023-04-24T10:36:52;5.50;;;4.23;;
29940;SDS011;16801;53.562;10.038;2023-04-24T10:40:17;3.83;;;3.43;;
29940;SDS011;16801;53.562;10.038;2023-04-24T10:43:39;5.80;;;5.23;;
29940;SDS011;16801;53.562;10.038;2023-04-24T10:47:00;5.47;;;3.60;;
29940;SDS011;16801;53.562;10.038;2023-04-24T10:50:22;6.07;;;4.83;;
29940;SDS011;16801;53.562;10.038;2023-04-24T10:53:43;5.90;;;5.20;;
29940;SDS011;16801;53.562;10.038;2023-04-24T11:00:55;8.83;;;4.50;;
29940;SDS011;16801;53.562;10.038;2023-04-24T11:04:21;6.10;;;4.67;;
29940;SDS011;16801;53.562;10.038;2023-04-24T11:08:09;6.73;;;4.80;;
29940;SDS011;16801;53.562;10.038;2023-04-24T11:11:31;6.70;;;4.63;;
29940;SDS011;16801;53.562;10.038;2023-04-24T11:15:04;5.67;;;4.57;;
29940;SDS011;16801;53.562;10.038;2023-04-24T11:18:36;4.37;;;3.63;;
29940;SDS011;16801;53.562;10.038;2023-04-24T11:21:59;5.80;;;5.30;;
29940;SDS011;16801;53.562;10.038;2023-04-24T11:25:21;5.33;;;4.10;;
29940;SDS011;16801;53.562;10.038;2023-04-24T11:28:46;5.50;;;4.93;;
29940;SDS011;16801;53.562;10.038;2023-04-24T11:32:18;4.23;;;3.87;;
29940;SDS011;16801;53.562;10.038;2023-04-24T11:35:44;5.13;;;4.60;;
29940;SDS011;16801;53.562;10.038;2023-04-24T11:39:04;7.13;;;4.80;;
29940;SDS011;16801;53.562;10.038;2023-04-24T11:42:25;5.50;;;5.00;;
29940;SDS011;16801;53.562;10.038;2023-04-24T11:45:47;7.03;;;5.17;;
29940;SDS011;16801;53.562;10.038;2023-04-24T11:49:10;5.27;;;4.67;;
29940;SDS011;16801;53.562;10.038;2023-04-24T11:52:33;4.33;;;3.87;;
29940;SDS011;16801;53.562;10.038;2023-04-24T11:56:00;4.30;;;2.83;;
29940;SDS011;16801;53.562;10.038;2023-04-24T11:59:23;4.70;;;3.73;;
29940;SDS011;16801;53.562;10.038;2023-04-24T12:02:44;3.40;;;3.13;;
29940;SDS011;16801;53.562;10.038;2023-04-24T12:06:06;3.93;;;3.57;;
29940;SDS011;16801;53.562;10.038;2023-04-24T12:09:28;4.43;;;3.20;;
29940;SDS011;16801;53.562;10.038;2023-04-24T12:12:49;4.30;;;3.93;;
29940;SDS011;16801;53.562;10.038;2023-04-24T12:16:10;7.17;;;3.63;;
29940;SDS011;16801;53.562;10.038;2023-04-24T12:19:32;5.73;;;3.27;;
29940;SDS011;16801;53.562;10.038;2023-04-24T12:22:54;3.00;;;2.80;;
29940;SDS011;16801;53.562;10.038;2023-04-24T12:26:16;2.97;;;2.67;;
29940;SDS011;16801;53.562;10.038;2023-04-24T12:29:50;3.30;;;3.10;;
29940;SDS011;16801;53.562;10.038;2023-04-24T12:33:12;3.70;;;3.20;;
29940;SDS011;16801;53.562;10.038;2023-04-24T12:36:34;4.30;;;3.30;;
29940;SDS011;16801;53.562;10.038;2023-04-24T12:40:00;5.87;;;3.33;;
29940;SDS011;16801;53.562;10.038;2023-04-24T12:43:23;2.87;;;2.03;;
29940;SDS011;16801;53.562;10.038;2023-04-24T12:46:44;3.30;;;3.10;;
29940;SDS011;16801;53.562;10.038;2023-04-24T12:50:05;3.63;;;3.33;;
29940;SDS011;16801;53.562;10.038;2023-04-24T12:53:27;2.27;;;2.17;;
29940;SDS011;16801;53.562;10.038;2023-04-24T12:56:51;2.90;;;2.33;;
29940;SDS011;16801;53.562;10.038;2023-04-24T13:00:12;3.90;;;3.27;;
29940;SDS011;16801;53.562;10.038;2023-04-24T13:03:34;2.87;;;2.67;;
29940;SDS011;16801;53.562;10.038;2023-04-24T13:06:55;4.57;;;3.23;;
29940;SDS011;16801;53.562;10.038;2023-04-24T13:10:16;2.90;;;2.53;;
29940;SDS011;16801;53.562;10.038;2023-04-24T13:13:40;4.83;;;3.57;;
29940;SDS011;16801;53.562;10.038;2023-04-24T13:17:01;2.70;;;2.53;;
29940;SDS011;16801;53.562;10.038;2023-04-24T13:20:22;2.63;;;2.43;;
29940;SDS011;16801;53.562;10.038;2023-04-24T13:23:43;2.80;;;2.60;;
29940;SDS011;16801;53.562;10.038;2023-04-24T13:27:04;3.33;;;2.53;;
29940;SDS011;16801;53.562;10.038;2023-04-24T13:30:26;7.70;;;3.37;;
29940;SDS011;16801;53.562;10.038;2023-04-24T13:33:47;3.80;;;2.87;;
29940;SDS011;16801;53.562;10.038;2023-04-24T13:37:08;3.10;;;2.60;;
29940;SDS011;16801;53.562;10.038;2023-04-24T13:40:29;3.00;;;2.63;;
29940;SDS011;16801;53.562;10.038;2023-04-24T13:43:49;2.53;;;2.27;;
29940;SDS011;16801;53.562;10.038;2023-04-24T13:47:12;4.53;;;2.30;;
29940;SDS011;16801;53.562;10.038;2023-04-24T13:50:33;2.27;;;2.07;;
29940;SDS011;16801;53.562;10.038;2023-04-24T13:53:54;2.27;;;2.00;;
29940;SDS011;16801;53.562;10.038;2023-04-24T13:57:15;4.57;;;2.43;;
29940;SDS011;16801;53.562;10.038;2023-04-24T14:00:36;1.97;;;1.87;;
29940;SDS011;16801;53.562;10.038;2023-04-24T14:03:59;2.33;;;2.13;;
29940;SDS011;16801;53.562;10.038;2023-04-24T14:07:20;3.00;;;2.57;;
29940;SDS011;16801;53.562;10.038;2023-04-24T14:10:41;2.77;;;2.57;;
29940;SDS011;16801;53.562;10.038;2023-04-24T14:14:02;2.87;;;2.63;;
29940;SDS011;16801;53.562;10.038;2023-04-24T14:17:24;2.60;;;2.37;;
29940;SDS011;16801;53.562;10.038;2023-04-24T14:20:46;2.30;;;2.17;;
29940;SDS011;16801;53.562;10.038;2023-04-24T14:24:07;2.17;;;2.03;;
29940;SDS011;16801;53.562;10.038;2023-04-24T14:27:28;4.57;;;2.37;;
29940;SDS011;16801;53.562;10.038;2023-04-24T14:30:50;2.17;;;2.00;;
29940;SDS011;16801;53.562;10.038;2023-04-24T14:34:11;2.33;;;1.93;;
29940;SDS011;16801;53.562;10.038;2023-04-24T14:37:33;2.23;;;2.10;;
29940;SDS011;16801;53.562;10.038;2023-04-24T14:40:55;2.77;;;2.57;;
29940;SDS011;16801;53.562;10.038;2023-04-24T14:44:16;2.23;;;2.03;;
29940;SDS011;16801;53.562;10.038;2023-04-24T14:47:36;2.40;;;2.00;;
29940;SDS011;16801;53.562;10.038;2023-04-24T14:50:57;2.90;;;2.67;;
29940;SDS011;16801;53.562;10.038;2023-04-24T14:54:20;3.50;;;2.50;;
29940;SDS011;16801;53.562;10.038;2023-04-24T14:57:42;3.43;;;3.10;;
29940;SDS011;16801;53.562;10.038;2023-04-24T15:01:04;4.60;;;3.17;;
29940;SDS011;16801;53.562;10.038;2023-04-24T15:04:25;4.10;;;2.60;;
29940;SDS011;16801;53.562;10.038;2023-04-24T15:07:46;2.40;;;2.20;;
29940;SDS011;16801;53.562;10.038;2023-04-24T15:11:08;4.30;;;3.90;;
29940;SDS011;16801;53.562;10.038;2023-04-24T15:14:29;2.90;;;2.70;;
29940;SDS011;16801;53.562;10.038;2023-04-24T15:17:51;2.77;;;2.57;;
29940;SDS011;16801;53.562;10.038;2023-04-24T15:21:13;2.63;;;2.43;;
29940;SDS011;16801;53.562;10.038;2023-04-24T15:24:34;3.10;;;2.30;;
29940;SDS011;16801;53.562;10.038;2023-04-24T15:27:56;1.73;;;1.63;;
29940;SDS011;16801;53.562;10.038;2023-04-24T15:31:18;1.93;;;1.83;;
29940;SDS011;16801;53.562;10.038;2023-04-24T15:34:39;2.17;;;1.17;;
29940;SDS011;16801;53.562;10.038;2023-04-24T15:38:00;1.63;;;1.53;;
29940;SDS011;16801;53.562;10.038;2023-04-24T15:41:21;1.53;;;1.43;;
29940;SDS011;16801;53.562;10.038;2023-04-24T15:44:43;1.60;;;1.50;;
29940;SDS011;16801;53.562;10.038;2023-04-24T15:48:04;1.47;;;1.37;;
29940;SDS011;16801;53.562;10.038;2023-04-24T15:51:25;0.90;;;0.90;;
29940;SDS011;16801;53.562;10.038;2023-04-24T15:54:46;2.67;;;2.47;;
29940;SDS011;16801;53.562;10.038;2023-04-24T15:58:07;2.17;;;1.90;;
29940;SDS011;16801;53.562;10.038;2023-04-24T16:01:29;3.87;;;3.07;;
29940;SDS011;16801;53.562;10.038;2023-04-24T16:04:50;2.30;;;2.10;;
29940;SDS011;16801;53.562;10.038;2023-04-24T16:08:12;2.60;;;2.40;;
29940;SDS011;16801;53.562;10.038;2023-04-24T16:11:33;2.83;;;2.63;;
29940;SDS011;16801;53.562;10.038;2023-04-24T16:14:55;2.67;;;2.47;;
29940;SDS011;16801;53.562;10.038;2023-04-24T16:18:18;2.43;;;2.23;;
29940;SDS011;16801;53.562;10.038;2023-04-24T16:21:38;2.80;;;2.60;;
29940;SDS011;16801;53.562;10.038;2023-04-24T16:24:59;2.37;;;1.93;;
29940;SDS011;16801;53.562;10.038;2023-04-24T16:28:20;3.77;;;2.57;;
29940;SDS011;16801;53.562;10.038;2023-04-24T16:31:42;2.73;;;2.33;;
29940;SDS011;16801;53.562;10.038;2023-04-24T16:35:04;1.77;;;1.67;;
29940;SDS011;16801;53.562;10.038;2023-04-24T16:38:25;1.77;;;1.53;;
29940;SDS011;16801;53.562;10.038;2023-04-24T16:41:46;1.77;;;1.67;;
29940;SDS011;16801;53.562;10.038;2023-04-24T16:45:08;1.93;;;1.37;;
29940;SDS011;16801;53.562;10.038;2023-04-24T16:48:31;2.00;;;1.60;;
29940;SDS011;16801;53.562;10.038;2023-04-24T16:51:54;1.73;;;1.63;;
29940;SDS011;16801;53.562;10.038;2023-04-24T16:55:15;2.07;;;1.87;;
29940;SDS011;16801;53.562;10.038;2023-04-24T16:58:36;4.67;;;4.27;;
29940;SDS011;16801;53.562;10.038;2023-04-24T17:01:56;114.03;;;65.47;;
29940;SDS011;16801;53.562;10.038;2023-04-24T17:05:17;201.53;;;181.93;;
29940;SDS011;16801;53.562;10.038;2023-04-24T17:08:42;75.33;;;68.70;;
29940;SDS011;16801;53.562;10.038;2023-04-24T17:12:03;69.97;;;50.70;;
29940;SDS011;16801;53.562;10.038;2023-04-24T17:15:25;5.20;;;4.33;;
29940;SDS011;16801;53.562;10.038;2023-04-24T17:18:46;1.73;;;1.63;;
29940;SDS011;16801;53.562;10.038;2023-04-24T17:22:07;1.80;;;1.70;;
29940;SDS011;16801;53.562;10.038;2023-04-24T17:25:29;2.47;;;2.30;;
29940;SDS011;16801;53.562;10.038;2023-04-24T17:28:50;1.63;;;1.53;;
29940;SDS011;16801;53.562;10.038;2023-04-24T17:32:12;2.50;;;2.20;;
29940;SDS011;16801;53.562;10.038;2023-04-24T17:35:33;2.10;;;2.00;;
29940;SDS011;16801;53.562;10.038;2023-04-24T17:38:54;4.93;;;1.93;;
29940;SDS011;16801;53.562;10.038;2023-04-24T17:42:16;2.67;;;2.00;;
29940;SDS011;16801;53.562;10.038;2023-04-24T17:45:37;2.77;;;1.70;;
29940;SDS011;16801;53.562;10.038;2023-04-24T17:48:58;3.77;;;2.37;;
29940;SDS011;16801;53.562;10.038;2023-04-24T17:52:19;2.90;;;2.47;;
29940;SDS011;16801;53.562;10.038;2023-04-24T17:55:40;6.90;;;2.70;;
29940;SDS011;16801;53.562;10.038;2023-04-24T17:59:03;2.20;;;1.70;;
29940;SDS011;16801;53.562;10.038;2023-04-24T18:02:24;2.53;;;2.30;;
29940;SDS011;16801;53.562;10.038;2023-04-24T18:05:45;2.03;;;1.83;;
29940;SDS011;16801;53.562;10.038;2023-04-24T18:09:06;2.73;;;2.53;;
29940;SDS011;16801;53.562;10.038;2023-04-24T18:12:27;3.97;;;2.27;;
29940;SDS011;16801;53.562;10.038;2023-04-24T18:15:49;2.63;;;2.43;;
29940;SDS011;16801;53.562;10.038;2023-04-24T18:19:10;3.10;;;2.80;;
29940;SDS011;16801;53.562;10.038;2023-04-24T18:22:31;3.83;;;2.67;;
29940;SDS011;16801;53.562;10.038;2023-04-24T18:25:51;4.50;;;2.13;;
29940;SDS011;16801;53.562;10.038;2023-04-24T18:29:12;4.33;;;2.17;;
29940;SDS011;16801;53.562;10.038;2023-04-24T18:32:35;5.27;;;3.13;;
29940;SDS011;16801;53.562;10.038;2023-04-24T18:35:56;2.27;;;1.70;;
29940;SDS011;16801;53.562;10.038;2023-04-24T18:39:17;3.93;;;2.90;;
29940;SDS011;16801;53.562;10.038;2023-04-24T18:42:38;3.63;;;2.07;;
29940;SDS011;16801;53.562;10.038;2023-04-24T18:45:58;3.50;;;2.23;;
29940;SDS011;16801;53.562;10.038;2023-04-24T18:49:20;2.47;;;2.27;;
29940;SDS011;16801;53.562;10.038;2023-04-24T18:52:41;3.07;;;1.50;;
29940;SDS011;16801;53.562;10.038;2023-04-24T18:56:02;3.23;;;1.60;;
29940;SDS011;16801;53.562;10.038;2023-04-24T18:59:23;1.10;;;1.00;;
29940;SDS011;16801;53.562;10.038;2023-04-24T19:02:44;2.03;;;1.83;;
29940;SDS011;16801;53.562;10.038;2023-04-24T19:06:06;2.53;;;2.33;;
29940;SDS011;16801;53.562;10.038;2023-04-24T19:09:27;1.77;;;1.53;;
29940;SDS011;16801;53.562;10.038;2023-04-24T19:12:48;2.50;;;1.43;;
29940;SDS011;16801;53.562;10.038;2023-04-24T19:16:14;1.10;;;1.10;;
29940;SDS011;16801;53.562;10.038;2023-04-24T19:19:35;1.00;;;1.00;;
29940;SDS011;16801;53.562;10.038;2023-04-24T19:22:57;5.57;;;1.30;;
29940;SDS011;16801;53.562;10.038;2023-04-24T19:26:18;2.27;;;2.10;;
29940;SDS011;16801;53.562;10.038;2023-04-24T19:29:40;1.33;;;1.10;;
29940;SDS011;16801;53.562;10.038;2023-04-24T19:33:01;2.10;;;1.80;;
29940;SDS011;16801;53.562;10.038;2023-04-24T19:36:22;2.63;;;1.80;;
29940;SDS011;16801;53.562;10.038;2023-04-24T19:39:44;4.50;;;1.70;;
29940;SDS011;16801;53.562;10.038;2023-04-24T19:43:05;2.53;;;1.50;;
29940;SDS011;16801;53.562;10.038;2023-04-24T19:46:26;2.00;;;1.90;;
29940;SDS011;16801;53.562;10.038;2023-04-24T19:49:46;0.90;;;0.90;;
29940;SDS011;16801;53.562;10.038;2023-04-24T19:53:08;1.90;;;1.80;;
29940;SDS011;16801;53.562;10.038;2023-04-24T19:56:32;1.97;;;1.77;;
29940;SDS011;16801;53.562;10.038;2023-04-24T19:59:53;1.20;;;1.10;;
29940;SDS011;16801;53.562;10.038;2023-04-24T20:03:14;2.10;;;1.37;;